Time;durP1;ratioP1;P1;durP2;ratioP2;P2;SDS_P1;SDS_P2;PMS_P1;PMS_P2;Temp;Humidity;BMP_temperature;BMP_pressure;BME280_temperature;BME280_humidity;BME280_pressure;Samples;Min_cycle;Max_cycle;Signal;HPM_P1;HPM_P2
2023/07/25 00:01:13;;;;;;;10.07;5.20;;;;;;;20.67;85.07;92901.66;5069385;28;20048;-73
2023/07/25 00:03:39;;;;;;;11.07;5.13;;;;;;;20.67;86.31;92904.25;5069009;28;20105;-73
2023/07/25 00:06:06;;;;;;;10.35;5.95;;;;;;;20.61;85.78;92905.38;5069553;28;20109;-73
2023/07/25 00:08:33;;;;;;;9.85;5.72;;;;;;;20.54;86.45;92911.72;5069150;28;20041;-73
2023/07/25 00:11:00;;;;;;;11.00;5.60;;;;;;;20.52;86.63;92908.63;5068776;28;20044;-73
2023/07/25 00:13:28;;;;;;;11.68;6.10;;;;;;;20.51;87.46;92906.28;5069292;28;20060;-73
2023/07/25 00:15:55;;;;;;;11.82;5.60;;;;;;;20.50;86.57;92905.50;5068279;28;20147;-73
2023/07/25 00:18:22;;;;;;;12.43;5.93;;;;;;;20.43;86.26;92892.78;5068930;28;22576;-73
2023/07/25 00:20:48;;;;;;;12.65;6.13;;;;;;;20.50;86.41;92897.69;5069213;28;20044;-74
2023/07/25 00:23:15;;;;;;;9.70;5.32;;;;;;;20.50;86.73;92897.69;5069131;28;20106;-72
2023/07/25 00:25:42;;;;;;;10.27;5.43;;;;;;;20.52;87.58;92892.19;5068819;28;20049;-72
2023/07/25 00:28:09;;;;;;;11.25;5.78;;;;;;;20.51;86.38;92901.84;5068438;28;20045;-72
2023/07/25 00:30:39;;;;;;;10.85;6.00;;;;;;;20.47;86.25;92893.03;5068208;28;20056;-72
2023/07/25 00:33:05;;;;;;;13.20;6.07;;;;;;;20.41;86.96;92884.47;5068717;28;20098;-73
2023/07/25 00:35:32;;;;;;;12.25;6.03;;;;;;;20.43;86.94;92892.78;5068427;28;20052;-72
2023/07/25 00:38:04;;;;;;;9.82;5.25;;;;;;;20.42;86.68;92885.28;5067941;28;20052;-74
2023/07/25 00:40:31;;;;;;;12.93;5.90;;;;;;;20.39;87.87;92875.38;5068577;28;20439;-72
2023/07/25 00:42:57;;;;;;;9.52;5.45;;;;;;;20.31;87.97;92881.97;5068935;28;20048;-73
2023/07/25 00:45:25;;;;;;;9.98;5.63;;;;;;;20.25;89.40;92881.28;5068238;28;20106;-72
2023/07/25 00:47:53;;;;;;;12.05;6.32;;;;;;;20.17;88.41;92863.63;5068513;28;20498;-73
2023/07/25 00:50:20;;;;;;;10.68;6.00;;;;;;;20.27;87.49;92879.16;5068717;28;20512;-73
2023/07/25 00:52:48;;;;;;;8.18;4.85;;;;;;;20.23;89.52;92865.13;5067864;28;20040;-73
2023/07/25 00:55:14;;;;;;;10.27;5.47;;;;;;;20.27;88.42;92876.56;5067432;28;20049;-71
2023/07/25 00:57:41;;;;;;;13.13;5.78;;;;;;;20.23;88.68;92862.50;5067648;28;20564;-72
2023/07/25 01:00:09;;;;;;;9.52;5.25;;;;;;;20.13;89.58;92855.59;5068472;28;20052;-72
2023/07/25 01:02:36;;;;;;;10.38;5.10;;;;;;;20.19;88.54;92869.34;5068311;28;20139;-73
2023/07/25 01:05:05;;;;;;;11.48;5.57;;;;;;;20.20;88.94;92859.69;5067531;28;20049;-73
2023/07/25 01:07:32;;;;;;;12.07;5.70;;;;;;;20.14;89.81;92857.13;5067162;28;20052;-73
2023/07/25 01:09:59;;;;;;;10.85;5.68;;;;;;;19.96;91.27;92848.22;5068468;28;20614;-73
2023/07/25 01:12:25;;;;;;;9.20;5.68;;;;;;;20.02;90.69;92870.56;5067765;28;20106;-72
2023/07/25 01:14:52;;;;;;;10.50;5.78;;;;;;;19.96;91.57;92869.06;5065540;28;20547;-72
2023/07/25 01:17:23;;;;;;;7.72;4.80;;;;;;;19.90;92.49;92867.50;5067952;28;20053;-73
2023/07/25 01:19:50;;;;;;;9.45;4.68;;;;;;;19.66;93.76;92868.28;5067411;28;20048;-73
2023/07/25 01:22:20;;;;;;;13.77;5.15;;;;;;;19.64;93.54;92878.19;5066525;28;20056;-73
2023/07/25 01:24:54;;;;;;;14.05;5.80;;;;;;;19.58;94.68;92871.47;5067411;28;20045;-74
2023/07/25 01:27:21;;;;;;;9.75;5.85;;;;;;;19.56;94.94;92874.34;5067432;28;20559;-73
2023/07/25 01:29:48;;;;;;;10.45;5.93;;;;;;;19.56;94.49;92884.00;5067860;28;20048;-73
2023/07/25 01:32:14;;;;;;;9.00;4.78;;;;;;;19.57;94.52;92881.13;5067924;28;20540;-73
2023/07/25 01:34:44;;;;;;;11.13;5.88;;;;;;;19.58;95.78;92880.06;5066609;28;20094;-73
2023/07/25 01:37:12;;;;;;;9.63;5.70;;;;;;;19.62;93.77;92880.28;5067559;28;20052;-72
2023/07/25 01:39:38;;;;;;;11.45;5.85;;;;;;;19.64;93.71;92888.63;5067521;28;20044;-73
2023/07/25 01:42:07;;;;;;;10.77;5.93;;;;;;;19.60;94.30;92879.78;5066871;28;20055;-73
2023/07/25 01:44:34;;;;;;;8.07;4.75;;;;;;;19.71;93.14;92881.25;5066919;28;20498;-72
2023/07/25 01:47:00;;;;;;;9.95;5.47;;;;;;;19.70;92.61;92882.31;5067058;28;20102;-73
2023/07/25 01:49:27;;;;;;;9.25;5.45;;;;;;;19.69;93.37;92883.38;5066552;28;20130;-75
2023/07/25 01:51:54;;;;;;;8.77;5.97;;;;;;;19.66;93.20;92886.50;5067675;28;20044;-73
2023/07/25 01:54:20;;;;;;;13.02;6.45;;;;;;;19.63;93.31;92889.69;5067203;28;20391;-71
2023/07/25 01:56:47;;;;;;;12.52;5.68;;;;;;;19.70;94.07;92889.34;5066789;28;20101;-73
2023/07/25 01:59:15;;;;;;;10.02;5.70;;;;;;;19.70;94.27;92882.31;5067167;28;20452;-74
2023/07/25 02:01:42;;;;;;;10.55;4.95;;;;;;;19.69;94.67;92885.19;5067095;28;20098;-74
2023/07/25 02:04:09;;;;;;;10.07;5.10;;;;;;;19.68;93.50;92889.63;5066937;28;20049;-74
2023/07/25 02:06:35;;;;;;;12.35;5.65;;;;;;;19.72;92.89;92890.63;5066243;28;21027;-75
2023/07/25 02:09:02;;;;;;;11.00;5.50;;;;;;;19.74;92.79;92885.94;5067080;28;20044;-75
2023/07/25 02:11:29;;;;;;;9.65;5.30;;;;;;;19.70;92.45;92884.91;5066419;28;20058;-74
2023/07/25 02:13:58;;;;;;;12.15;6.05;;;;;;;19.63;93.95;92885.22;5066935;28;20044;-74
2023/07/25 02:16:29;;;;;;;9.98;5.65;;;;;;;19.69;94.83;92893.00;5066132;28;20494;-74
2023/07/25 02:18:56;;;;;;;16.02;6.30;;;;;;;19.55;95.54;92875.41;5066652;28;20074;-74
2023/07/25 02:21:22;;;;;;;11.80;5.82;;;;;;;19.62;94.74;92893.31;5064091;28;20106;-75
2023/07/25 02:23:49;;;;;;;10.23;5.65;;;;;;;19.58;94.18;92877.44;5060202;28;20506;-74
2023/07/25 02:26:16;;;;;;;16.35;6.25;;;;;;;19.61;95.42;92894.38;5063526;28;20106;-75
2023/07/25 02:28:42;;;;;;;11.10;5.07;;;;;;;19.55;96.22;92896.25;5062378;28;20489;-73
2023/07/25 02:31:09;;;;;;;10.52;5.22;;;;;;;19.50;96.41;92889.22;5066619;28;20106;-73
2023/07/25 02:33:39;;;;;;;10.25;5.32;;;;;;;19.51;94.00;92905.66;5066092;28;20636;-73
2023/07/25 02:36:06;;;;;;;11.48;5.18;;;;;;;19.52;94.72;92906.44;5066090;28;20106;-73
2023/07/25 02:38:33;;;;;;;12.40;5.95;;;;;;;19.48;94.72;92909.59;5066378;28;20067;-73
2023/07/25 02:40:59;;;;;;;12.27;5.78;;;;;;;19.49;94.22;92902.56;5066554;28;20094;-74
2023/07/25 02:43:26;;;;;;;14.60;5.22;;;;;;;19.50;94.04;92906.72;5066282;28;20094;-73
2023/07/25 02:45:53;;;;;;;11.80;5.18;;;;;;;19.35;92.12;92869.31;5065911;28;20044;-74
2023/07/25 02:48:20;;;;;;;10.60;4.38;;;;;;;19.57;91.09;92895.97;5065728;28;20098;-74
2023/07/25 02:50:48;;;;;;;11.52;5.43;;;;;;;19.59;90.30;92893.88;5066509;28;20052;-73
2023/07/25 02:53:15;;;;;;;13.95;5.57;;;;;;;19.62;89.60;92898.53;5067227;28;20048;-73
2023/07/25 02:55:42;;;;;;;9.13;4.88;;;;;;;19.67;89.15;92895.13;5070708;28;20056;-73
2023/07/25 02:58:08;;;;;;;11.23;5.47;;;;;;;19.70;89.81;92895.34;5069594;28;20509;-73
2023/07/25 03:00:35;;;;;;;10.10;5.15;;;;;;;19.76;89.85;92893.44;5070218;28;20048;-74
2023/07/25 03:03:02;;;;;;;10.98;5.75;;;;;;;19.77;87.97;92889.81;5069880;28;20494;-73
2023/07/25 03:05:29;;;;;;;12.40;4.88;;;;;;;19.83;86.77;92895.75;5070510;28;20098;-73
2023/07/25 03:07:57;;;;;;;13.50;5.78;;;;;;;19.85;86.55;92891.03;5069604;28;20502;-73
2023/07/25 03:10:24;;;;;;;10.25;5.10;;;;;;;19.91;87.10;92895.16;5070301;28;20563;-73
2023/07/25 03:12:52;;;;;;;11.88;4.93;;;;;;;19.82;87.11;92879.34;5069800;28;20040;-73
2023/07/25 03:15:19;;;;;;;9.90;4.47;;;;;;;19.92;86.23;92890.72;5069991;28;20044;-73
2023/07/25 03:17:46;;;;;;;10.57;4.43;;;;;;;19.95;86.12;92896.13;5068956;28;20048;-73
2023/07/25 03:20:13;;;;;;;11.52;4.60;;;;;;;19.81;86.00;92875.16;5066473;28;20555;-73
2023/07/25 03:22:40;;;;;;;12.63;5.40;;;;;;;19.97;85.82;92894.09;5070197;28;20064;-73
2023/07/25 03:25:09;;;;;;;13.90;5.57;;;;;;;19.97;85.42;92880.25;5069564;28;20133;-73
2023/07/25 03:27:36;;;;;;;12.57;5.07;;;;;;;20.03;84.94;92885.16;5069037;28;20149;-72
2023/07/25 03:30:04;;;;;;;11.75;5.45;;;;;;;20.05;84.50;92879.66;5068423;28;20045;-72
2023/07/25 03:32:30;;;;;;;8.93;5.38;;;;;;;20.01;84.40;92873.44;5069678;28;20502;-72
2023/07/25 03:34:57;;;;;;;9.57;4.95;;;;;;;20.13;85.04;92883.47;5068843;28;20090;-73
2023/07/25 03:37:24;;;;;;;11.38;4.90;;;;;;;20.14;84.00;92880.59;5069572;28;20098;-73
2023/07/25 03:39:50;;;;;;;11.35;4.40;;;;;;;20.24;84.26;92881.56;5068195;28;20060;-73
2023/07/25 03:42:18;;;;;;;9.57;4.97;;;;;;;20.21;85.61;92882.88;5069120;28;20053;-73
2023/07/25 03:44:45;;;;;;;13.05;4.93;;;;;;;20.19;87.07;92884.22;5068707;28;20090;-72
2023/07/25 03:47:12;;;;;;;13.70;5.25;;;;;;;20.21;85.75;92882.88;5067741;28;20049;-72
2023/07/25 03:49:38;;;;;;;13.93;5.28;;;;;;;20.19;87.47;92881.59;5069031;28;20053;-72
2023/07/25 03:52:06;;;;;;;9.05;5.07;;;;;;;20.15;85.92;92882.16;5068614;28;20044;-72
2023/07/25 03:54:33;;;;;;;14.25;5.35;;;;;;;20.23;86.22;92887.81;5067370;28;20094;-73
2023/07/25 03:57:01;;;;;;;11.27;5.18;;;;;;;20.21;86.54;92880.28;5069489;28;20102;-73
2023/07/25 03:59:29;;;;;;;9.73;4.82;;;;;;;20.25;86.63;92877.88;5066120;28;20059;-73
2023/07/25 04:01:56;;;;;;;14.10;5.28;;;;;;;20.30;86.72;92883.03;5065958;28;20101;-73
2023/07/25 04:04:23;;;;;;;11.05;4.75;;;;;;;20.37;86.22;92885.31;5065291;28;20419;-73
2023/07/25 04:06:49;;;;;;;11.23;4.85;;;;;;;20.42;85.86;92877.44;5064366;28;20044;-73
2023/07/25 04:09:16;;;;;;;10.55;5.22;;;;;;;20.45;85.79;92883.94;5064019;28;20468;-73
2023/07/25 04:11:43;;;;;;;14.43;5.68;;;;;;;20.48;85.30;92884.16;5063002;28;20102;-73
2023/07/25 04:14:09;;;;;;;11.32;5.38;;;;;;;20.55;84.88;92889.03;5063985;28;20161;-73
2023/07/25 04:16:37;;;;;;;10.48;4.50;;;;;;;20.60;85.04;92885.56;5069475;28;20044;-73
2023/07/25 04:19:04;;;;;;;10.15;4.85;;;;;;;20.66;84.32;92893.06;5062698;28;20102;-73
2023/07/25 04:21:31;;;;;;;11.75;5.22;;;;;;;20.73;84.44;92897.94;5062346;28;20610;-72
2023/07/25 04:23:58;;;;;;;9.40;4.88;;;;;;;20.74;86.08;92891.63;5063384;28;20052;-73
2023/07/25 04:26:24;;;;;;;13.48;5.10;;;;;;;20.76;87.81;92892.16;5062309;28;20556;-73
2023/07/25 04:28:51;;;;;;;21.25;5.82;;;;;;;20.75;88.38;92895.81;5063239;28;20106;-73
2023/07/25 04:31:18;;;;;;;13.07;5.65;;;;;;;20.67;89.02;92896.44;5068860;28;20059;-73
2023/07/25 04:33:46;;;;;;;15.65;6.00;;;;;;;20.65;88.57;92893.34;5063403;28;20048;-73
2023/07/25 04:36:12;;;;;;;12.20;5.38;;;;;;;20.67;89.72;92896.44;5068780;28;20049;-73
2023/07/25 04:38:40;;;;;;;10.88;4.90;;;;;;;20.70;87.80;92894.03;5067419;28;20561;-73
2023/07/25 04:41:07;;;;;;;12.98;5.57;;;;;;;20.73;89.85;92879.66;5068625;28;20048;-73
2023/07/25 04:43:33;;;;;;;13.10;6.00;;;;;;;20.87;91.00;92884.22;5067888;28;20444;-73
2023/07/25 04:46:00;;;;;;;9.85;4.85;;;;;;;21.00;89.38;92878.28;5068702;28;20048;-73
2023/07/25 04:48:26;;;;;;;8.50;4.38;;;;;;;21.14;87.06;92880.16;5067750;28;20086;-73
2023/07/25 04:50:53;;;;;;;;;;;;;;;21.25;84.70;92881.59;5069012;28;20048;-73
2023/07/25 04:53:20;;;;;;;15.35;6.35;;;;;;;21.36;83.25;92884.81;5068708;28;19924;-73
2023/07/25 04:55:47;;;;;;;11.40;5.20;;;;;;;21.47;82.71;92882.81;5067651;28;20057;-73
2023/07/25 04:58:14;;;;;;;10.93;5.07;;;;;;;21.58;82.02;92881.59;5067627;28;20127;-73
2023/07/25 05:00:40;;;;;;;17.23;4.82;;;;;;;21.71;81.05;92874.88;5068210;28;20563;-73
2023/07/25 05:03:07;;;;;;;14.73;5.78;;;;;;;21.86;81.11;92871.22;5068196;28;20052;-73
2023/07/25 05:05:34;;;;;;;12.98;4.72;;;;;;;21.99;80.53;92874.16;5068375;28;20045;-73
2023/07/25 05:08:02;;;;;;;11.70;5.15;;;;;;;22.11;80.61;92873.66;5067361;28;20048;-73
2023/07/25 05:10:29;;;;;;;8.15;4.32;;;;;;;22.21;82.22;92870.09;5067916;28;20582;-73
2023/07/25 05:12:55;;;;;;;14.00;4.82;;;;;;;22.34;81.61;92871.13;5067608;28;20093;-73
2023/07/25 05:15:22;;;;;;;17.88;4.85;;;;;;;22.41;82.39;92855.84;5067241;28;20552;-73
2023/07/25 05:17:49;;;;;;;14.80;4.95;;;;;;;22.49;81.34;92854.38;5067405;28;20110;-73
2023/07/25 05:20:16;;;;;;;13.50;5.57;;;;;;;22.68;80.07;92864.75;5063559;28;20052;-73
2023/07/25 05:22:42;;;;;;;11.20;4.70;;;;;;;22.69;80.00;92848.75;5068061;28;20106;-73
2023/07/25 05:25:10;;;;;;;10.65;4.47;;;;;;;22.72;78.37;92836.91;5067682;28;20052;-73
2023/07/25 05:27:37;;;;;;;9.32;4.90;;;;;;;23.08;76.86;92857.06;5066786;28;20449;-73
2023/07/25 05:30:05;;;;;;;13.70;4.22;;;;;;;23.22;75.82;92857.03;5067908;28;20098;-73
2023/07/25 05:32:31;;;;;;;19.75;6.00;;;;;;;23.36;75.52;92856.22;5067777;28;20109;-73
2023/07/25 05:34:58;;;;;;;21.10;6.35;;;;;;;23.54;74.84;92848.44;5066892;28;20094;-73
2023/07/25 05:37:34;;;;;;;35.72;7.18;;;;;;;23.71;73.40;92850.41;5067680;28;20441;-73
2023/07/25 05:40:01;;;;;;;32.55;8.73;;;;;;;23.92;71.66;92848.03;5067020;28;20045;-73
2023/07/25 05:42:29;;;;;;;15.40;6.93;;;;;;;24.07;69.33;92849.47;5067381;28;20084;-73
2023/07/25 05:44:56;;;;;;;16.40;6.53;;;;;;;24.22;67.82;92856.22;5067218;28;20101;-73
2023/07/25 05:47:23;;;;;;;12.00;4.60;;;;;;;24.37;67.36;92855.00;5067157;28;20048;-73
2023/07/25 05:49:50;;;;;;;12.95;4.28;;;;;;;24.54;67.52;92856.88;5063829;28;20558;-74
2023/07/25 05:52:17;;;;;;;10.38;4.25;;;;;;;24.68;65.57;92846.25;5066856;28;20052;-73
2023/07/25 05:54:44;;;;;;;11.15;3.65;;;;;;;24.84;64.77;92842.44;5067124;28;20688;-73
2023/07/25 05:57:11;;;;;;;10.60;4.18;;;;;;;25.04;64.43;92844.44;5066953;28;20053;-71
2023/07/25 05:59:42;;;;;;;15.60;5.15;;;;;;;25.22;63.00;92844.44;5067095;28;20063;-71
2023/07/25 06:02:09;;;;;;;8.93;4.00;;;;;;;25.41;62.50;92838.09;5066277;28;20044;-72
2023/07/25 06:04:36;;;;;;;10.52;4.03;;;;;;;25.59;62.40;92836.22;5067204;28;20395;-72
2023/07/25 06:07:03;;;;;;;13.30;4.35;;;;;;;25.81;61.48;92829.97;5066166;28;20048;-72
2023/07/25 06:09:30;;;;;;;8.38;4.00;;;;;;;25.98;60.63;92828.34;5066824;28;20048;-72
2023/07/25 06:11:57;;;;;;;12.15;4.45;;;;;;;26.15;60.13;92823.00;5066545;28;20560;-72
2023/07/25 06:14:23;;;;;;;9.40;4.05;;;;;;;26.37;58.78;92833.59;5066291;28;20094;-72
2023/07/25 06:16:52;;;;;;;7.00;3.97;;;;;;;26.57;58.35;92820.81;5066847;28;20048;-73
2023/07/25 06:19:18;;;;;;;7.85;4.10;;;;;;;26.80;58.37;92826.53;5066067;28;20498;-73
2023/07/25 06:21:45;;;;;;;10.93;3.83;;;;;;;27.08;57.97;92818.13;5063132;28;20149;-73
2023/07/25 06:24:13;;;;;;;10.07;3.72;;;;;;;27.33;57.49;92826.91;5066521;28;20121;-73
2023/07/25 06:26:40;;;;;;;12.43;5.10;;;;;;;27.61;56.38;92823.72;5065932;28;20153;-73
2023/07/25 06:29:07;;;;;;;17.02;4.95;;;;;;;27.88;55.71;92820.78;5065616;28;20052;-73
2023/07/25 06:31:34;;;;;;;17.65;4.38;;;;;;;28.09;54.88;92814.63;5066694;28;20566;-73
2023/07/25 06:34:02;;;;;;;8.82;4.00;;;;;;;28.32;52.98;92816.84;5066656;28;20563;-73
2023/07/25 06:36:28;;;;;;;8.20;3.78;;;;;;;28.52;52.22;92804.63;5065327;28;20564;-73
2023/07/25 06:38:55;;;;;;;8.75;5.03;;;;;;;28.72;51.04;92816.13;5066374;28;20049;-73
2023/07/25 06:41:22;;;;;;;9.20;3.47;;;;;;;28.83;49.35;92811.13;5066181;28;20048;-74
2023/07/25 06:43:48;;;;;;;10.65;3.70;;;;;;;28.96;48.47;92819.81;5066036;28;20071;-73
2023/07/25 06:46:15;;;;;;;11.20;4.03;;;;;;;29.06;48.29;92822.00;5066259;28;20098;-72
2023/07/25 06:48:42;;;;;;;7.45;3.92;;;;;;;29.17;47.08;92813.59;5066453;28;20437;-74
2023/07/25 06:51:10;;;;;;;9.95;2.88;;;;;;;29.26;47.41;92813.44;5066365;28;20109;-73
2023/07/25 06:53:37;;;;;;;8.93;4.00;;;;;;;29.36;46.05;92818.25;5065404;28;20064;-72
2023/07/25 06:56:04;;;;;;;10.68;3.90;;;;;;;29.49;46.52;92811.06;5066493;28;20040;-72
2023/07/25 06:58:30;;;;;;;9.18;3.10;;;;;;;29.62;47.33;92813.63;5066220;28;20090;-73
2023/07/25 07:00:58;;;;;;;10.35;3.72;;;;;;;29.79;47.06;92818.59;5065276;28;20494;-72
2023/07/25 07:03:25;;;;;;;5.75;2.55;;;;;;;30.09;46.47;92815.53;5063777;28;20586;-72
2023/07/25 07:05:55;;;;;;;7.63;3.50;;;;;;;30.30;45.76;92816.38;5065969;28;20049;-72
2023/07/25 07:08:23;;;;;;;13.32;4.28;;;;;;;30.43;45.66;92809.06;5065699;28;20098;-72
2023/07/25 07:10:53;;;;;;;7.72;3.83;;;;;;;30.56;45.27;92810.50;5065922;28;20137;-72
2023/07/25 07:13:20;;;;;;;12.43;4.03;;;;;;;30.66;44.67;92806.53;5065900;28;20063;-72
2023/07/25 07:15:47;;;;;;;6.88;3.95;;;;;;;30.93;44.86;92804.84;5065579;28;20177;-72
2023/07/25 07:18:14;;;;;;;14.70;4.78;;;;;;;30.95;43.80;92804.50;5065917;28;20051;-73
2023/07/25 07:20:46;;;;;;;9.20;3.47;;;;;;;31.13;43.48;92801.41;5065006;28;20059;-72
2023/07/25 07:23:13;;;;;;;11.55;3.95;;;;;;;31.09;43.70;92797.94;5065754;28;20056;-72
2023/07/25 07:25:41;;;;;;;8.45;4.13;;;;;;;31.32;43.82;92798.00;5065377;28;20094;-72
2023/07/25 07:28:07;;;;;;;10.35;4.00;;;;;;;31.59;43.26;92803.41;5066104;28;20500;-72
2023/07/25 07:30:34;;;;;;;13.73;4.03;;;;;;;31.85;43.09;92792.09;5066110;28;20041;-72
2023/07/25 07:33:01;;;;;;;12.05;4.15;;;;;;;32.01;42.95;92801.81;5065505;28;20571;-72
2023/07/25 07:35:28;;;;;;;7.57;3.83;;;;;;;32.09;43.27;92797.38;5065552;28;20098;-72
2023/07/25 07:37:54;;;;;;;6.97;4.05;;;;;;;32.27;41.89;92789.69;5065664;28;20044;-72
2023/07/25 07:40:21;;;;;;;11.27;3.88;;;;;;;32.13;41.87;92793.66;5067719;28;20044;-72
2023/07/25 07:42:49;;;;;;;9.32;3.92;;;;;;;32.03;41.79;92785.53;5069485;28;20049;-71
2023/07/25 07:45:16;;;;;;;13.02;4.78;;;;;;;32.23;42.01;92786.97;5069464;28;20044;-72
2023/07/25 07:47:43;;;;;;;10.10;4.40;;;;;;;32.26;41.76;92788.91;5069302;28;20704;-72
2023/07/25 07:50:10;;;;;;;6.80;3.22;;;;;;;32.32;41.15;92780.63;5069561;28;20048;-72
2023/07/25 07:52:41;;;;;;;9.30;3.88;;;;;;;32.56;41.59;92786.66;5069284;28;20099;-73
2023/07/25 07:55:09;;;;;;;12.80;3.88;;;;;;;32.66;40.91;92772.75;5068109;28;20044;-74
2023/07/25 07:57:39;;;;;;;11.80;3.88;;;;;;;32.79;40.86;92783.94;5068829;28;20047;-73
2023/07/25 08:00:09;;;;;;;10.88;3.55;;;;;;;32.72;40.58;92773.97;5068762;28;20056;-73
2023/07/25 08:02:36;;;;;;;9.48;3.80;;;;;;;32.84;40.71;92759.69;5068567;28;20058;-73
2023/07/25 08:05:03;;;;;;;10.32;3.78;;;;;;;32.87;39.48;92752.88;5066262;28;20137;-72
2023/07/25 08:07:29;;;;;;;8.48;4.38;;;;;;;32.83;39.68;92744.06;5067916;28;20553;-73
2023/07/25 08:09:56;;;;;;;9.18;3.58;;;;;;;32.97;40.14;92754.13;5069040;28;20468;-73
2023/07/25 08:12:24;;;;;;;9.60;3.70;;;;;;;32.81;39.86;92744.44;5068380;28;20098;-72
2023/07/25 08:14:50;;;;;;;10.32;4.18;;;;;;;32.77;39.38;92751.63;5068753;28;20098;-73
2023/07/25 08:17:20;;;;;;;7.97;3.30;;;;;;;32.91;39.77;92751.78;5067969;28;20048;-75
2023/07/25 08:19:47;;;;;;;14.18;4.28;;;;;;;32.94;38.20;92747.63;5065470;28;20048;-75
2023/07/25 08:22:13;;;;;;;11.32;3.88;;;;;;;33.09;39.43;92750.47;5064180;28;20052;-73
2023/07/25 08:24:41;;;;;;;13.07;4.63;;;;;;;33.05;39.54;92750.44;5065451;28;20040;-74
2023/07/25 08:27:08;;;;;;;10.15;4.20;;;;;;;33.08;38.93;92757.69;5063333;28;20044;-73
2023/07/25 08:29:39;;;;;;;12.70;4.30;;;;;;;33.15;39.32;92749.00;5065538;28;20107;-73
2023/07/25 08:32:08;;;;;;;10.98;4.15;;;;;;;33.24;39.42;92754.81;5062414;28;20040;-73
2023/07/25 08:34:37;;;;;;;6.60;3.55;;;;;;;33.48;39.40;92744.75;5067390;28;20053;-73
2023/07/25 08:37:04;;;;;;;10.98;4.38;;;;;;;33.34;37.99;92740.06;5064453;28;20489;-74
2023/07/25 08:39:31;;;;;;;10.40;3.90;;;;;;;33.49;38.08;92742.88;5065286;28;20130;-73
2023/07/25 08:41:59;;;;;;;9.52;4.22;;;;;;;33.57;38.46;92739.16;5067736;28;20114;-73
2023/07/25 08:44:27;;;;;;;14.52;3.90;;;;;;;33.77;37.79;92736.28;5065558;28;20098;-73
2023/07/25 08:46:56;;;;;;;11.00;3.65;;;;;;;33.81;37.31;92735.16;5059428;28;20048;-73
2023/07/25 08:49:24;;;;;;;11.65;4.05;;;;;;;33.84;38.09;92723.00;5064087;28;20062;-73
2023/07/25 08:51:57;;;;;;;14.23;3.75;;;;;;;33.85;37.85;92724.53;5060710;28;20132;-73
2023/07/25 08:54:30;;;;;;;10.57;4.75;;;;;;;34.01;36.96;92731.50;5063364;28;20048;-73
2023/07/25 08:56:58;;;;;;;11.98;4.38;;;;;;;34.01;37.51;92734.16;5063454;28;20498;-74
2023/07/25 08:59:25;;;;;;;7.88;3.70;;;;;;;34.19;37.10;92732.38;5062541;28;20052;-74
2023/07/25 09:01:53;;;;;;;9.07;3.97;;;;;;;34.27;36.62;92733.19;5062636;28;20521;-73
2023/07/25 09:04:20;;;;;;;8.40;3.67;;;;;;;34.27;36.93;92735.84;5062562;28;20044;-74
2023/07/25 09:06:47;;;;;;;8.13;3.40;;;;;;;34.43;36.73;92730.22;5063311;28;20105;-73
2023/07/25 09:09:16;;;;;;;10.43;3.08;;;;;;;34.50;36.79;92732.94;5064119;28;20462;-74
2023/07/25 09:11:44;;;;;;;11.35;3.38;;;;;;;34.67;36.87;92729.97;5062402;28;20095;-74
2023/07/25 09:14:11;;;;;;;8.13;3.05;;;;;;;34.73;36.36;92731.13;5062036;28;20084;-73
2023/07/25 09:16:38;;;;;;;7.47;3.03;;;;;;;34.92;36.74;92730.06;5063315;28;20525;-73
2023/07/25 09:19:05;;;;;;;13.70;3.85;;;;;;;34.88;36.20;92694.59;5064739;28;20114;-74
2023/07/25 09:21:32;;;;;;;9.52;3.38;;;;;;;35.22;35.46;92729.03;5065261;28;20129;-74
2023/07/25 09:24:00;;;;;;;10.85;3.42;;;;;;;35.31;34.63;92718.72;5067179;28;20044;-73
2023/07/25 09:26:30;;;;;;;13.88;4.13;;;;;;;35.41;35.00;92724.47;5066308;28;20493;-73
2023/07/25 09:28:59;;;;;;;7.68;3.63;;;;;;;35.45;34.70;92709.97;5065193;28;20527;-73
2023/07/25 09:31:27;;;;;;;14.90;3.90;;;;;;;35.44;35.05;92718.34;5062773;28;20044;-74
2023/07/25 09:33:55;;;;;;;7.72;3.67;;;;;;;35.66;35.41;92729.06;5062088;28;20048;-74
2023/07/25 09:36:22;;;;;;;9.25;3.90;;;;;;;35.66;35.09;92723.72;5063749;28;20478;-74
2023/07/25 09:38:50;;;;;;;9.80;3.70;;;;;;;35.90;35.03;92727.53;5062652;28;20052;-74
2023/07/25 09:41:17;;;;;;;9.27;3.60;;;;;;;35.80;34.56;92728.31;5062303;28;20443;-74
2023/07/25 09:43:45;;;;;;;12.82;4.32;;;;;;;36.06;34.00;92721.81;5061355;28;20101;-74
2023/07/25 09:46:12;;;;;;;8.10;2.95;;;;;;;36.10;34.18;92719.13;5060114;28;20049;-74
2023/07/25 09:48:43;;;;;;;14.65;3.63;;;;;;;36.11;33.84;92709.94;5059133;28;20417;-74
2023/07/25 09:51:11;;;;;;;9.20;3.72;;;;;;;36.34;34.14;92687.38;5061010;28;20102;-74
2023/07/25 09:53:38;;;;;;;11.82;4.10;;;;;;;36.57;32.77;92694.94;5057519;28;20044;-74
2023/07/25 09:56:06;;;;;;;14.75;3.58;;;;;;;36.77;33.54;92703.28;5059555;28;20052;-74
2023/07/25 09:58:34;;;;;;;9.52;2.97;;;;;;;37.00;32.29;92694.00;5061345;28;20114;-74
2023/07/25 10:01:03;;;;;;;10.13;4.32;;;;;;;37.02;32.70;92697.03;5060195;28;20109;-74
2023/07/25 10:03:30;;;;;;;31.45;5.05;;;;;;;37.13;31.25;92697.00;5060837;28;20079;-74
2023/07/25 10:05:58;;;;;;;7.57;2.67;;;;;;;37.23;31.62;92695.41;5061718;28;20064;-74
2023/07/25 10:08:26;;;;;;;8.63;3.38;;;;;;;37.27;31.24;92696.16;5059268;28;20044;-74
2023/07/25 10:10:55;;;;;;;6.70;2.92;;;;;;;37.12;30.96;92692.78;5060547;28;20056;-74
2023/07/25 10:13:22;;;;;;;10.45;2.72;;;;;;;37.32;30.48;92683.47;5059912;28;20192;-74
2023/07/25 10:15:50;;;;;;;9.63;3.30;;;;;;;37.65;29.88;92678.66;5063761;28;20518;-75
2023/07/25 10:18:23;;;;;;;6.40;2.97;;;;;;;37.79;29.69;92673.19;5064902;28;20052;-74
2023/07/25 10:20:51;;;;;;;7.78;2.55;;;;;;;37.87;29.53;92671.19;5059146;28;20564;-74
2023/07/25 10:23:18;;;;;;;5.47;2.33;;;;;;;38.00;29.08;92676.81;5056125;28;20056;-74
2023/07/25 10:25:45;;;;;;;9.13;3.00;;;;;;;38.07;28.96;92665.25;5066278;28;20466;-74
2023/07/25 10:28:13;;;;;;;8.20;3.03;;;;;;;38.08;29.81;92664.13;5064161;28;20053;-74
2023/07/25 10:30:44;;;;;;;8.65;2.85;;;;;;;38.17;30.23;92660.97;5064369;28;20503;-74
2023/07/25 10:33:12;;;;;;;5.78;2.42;;;;;;;38.32;29.36;92654.25;5063158;28;20403;-74
2023/07/25 10:35:42;;;;;;;5.55;1.90;;;;;;;38.53;29.75;92649.06;5064968;28;20040;-74
2023/07/25 10:38:10;;;;;;;5.35;2.50;;;;;;;38.19;29.71;92621.09;5065200;28;20465;-74
2023/07/25 10:40:54;;;;;;;13.30;3.25;;;;;;;38.19;30.05;92640.63;5064571;28;20057;-74
2023/07/25 10:43:21;;;;;;;;;;;;;;;38.17;30.07;92632.22;5058761;28;20468;-74
2023/07/25 10:45:50;;;;;;;6.40;3.30;;;;;;;38.28;30.87;92629.41;5064813;28;19930;-74
2023/07/25 10:48:34;;;;;;;7.00;2.40;;;;;;;38.26;30.09;92620.25;5063648;28;20052;-74
2023/07/25 10:51:06;;;;;;;4.35;2.38;;;;;;;38.13;29.81;92622.69;5064771;28;20130;-75
2023/07/25 10:53:33;;;;;;;7.40;2.85;;;;;;;38.39;30.16;92620.47;5062398;28;20059;-74
2023/07/25 10:56:18;;;;;;;7.22;2.60;;;;;;;38.57;29.61;92621.03;5062430;28;20044;-74
2023/07/25 10:59:05;;;;;;;8.82;2.88;;;;;;;38.79;28.93;92617.28;5062313;28;20045;-74
2023/07/25 11:01:34;;;;;;;6.32;2.92;;;;;;;38.81;29.87;92609.59;5061966;28;20182;-74
2023/07/25 11:04:27;;;;;;;9.32;2.92;;;;;;;39.06;28.99;92603.91;5060997;28;20059;-74
2023/07/25 11:06:56;;;;;;;7.40;2.83;;;;;;;39.16;29.30;92599.50;5060938;28;20048;-74
2023/07/25 11:09:24;;;;;;;10.90;2.85;;;;;;;39.27;29.10;92594.72;5062687;28;20051;-74
2023/07/25 11:11:53;;;;;;;5.90;2.72;;;;;;;39.31;28.56;92594.66;5062454;28;20063;-74
2023/07/25 11:14:21;;;;;;;6.10;2.67;;;;;;;39.17;28.28;92563.44;5061435;28;20049;-74
2023/07/25 11:16:50;;;;;;;6.03;2.83;;;;;;;39.49;27.82;92580.97;5063232;28;20044;-74
2023/07/25 11:19:18;;;;;;;5.95;2.92;;;;;;;39.35;28.40;92579.25;5063888;28;20044;-75
2023/07/25 11:21:46;;;;;;;4.95;1.67;;;;;;;39.35;26.89;92578.47;5063067;28;20057;-74
2023/07/25 11:24:14;;;;;;;5.57;2.47;;;;;;;39.33;26.35;92575.44;5063910;28;20117;-74
2023/07/25 11:26:43;;;;;;;7.35;2.33;;;;;;;39.36;27.73;92571.94;5063866;28;20052;-74
2023/07/25 11:29:13;;;;;;;8.43;2.78;;;;;;;39.37;26.08;92576.91;5062628;28;20048;-75
2023/07/25 11:31:46;;;;;;;10.02;2.50;;;;;;;39.46;26.64;92575.63;5062491;28;20417;-74